Time;durP1;ratioP1;P1;durP2;ratioP2;P2;SDS_P1;SDS_P2;PMS_P1;PMS_P2;Temp;Humidity;BMP_temperature;BMP_pressure;BME280_temperature;BME280_humidity;BME280_pressure;Samples;Min_cycle;Max_cycle;Signal;HPM_P1;HPM_P2
2023/10/11 00:01:29;;;;;;;20.80;12.05;;;21.70;99.90;;;;;;6225944;23;20055;-83
2023/10/11 00:03:58;;;;;;;28.65;13.40;;;21.60;99.90;;;;;;6175827;23;20077;-82
2023/10/11 00:06:25;;;;;;;23.27;11.70;;;21.60;99.90;;;;;;6201878;23;20409;-83
2023/10/11 00:08:52;;;;;;;23.70;12.40;;;21.70;99.90;;;;;;6228137;23;20023;-82
2023/10/11 00:11:24;;;;;;;26.52;12.80;;;21.60;99.90;;;;;;6227816;23;20020;-83
2023/10/11 00:13:53;;;;;;;25.87;13.53;;;21.60;99.90;;;;;;6204053;23;20066;-81
2023/10/11 00:16:21;;;;;;;25.90;13.63;;;21.60;99.90;;;;;;6202523;23;20242;-83
2023/10/11 00:18:49;;;;;;;26.67;13.88;;;21.60;99.90;;;;;;6178389;23;20091;-83
2023/10/11 00:21:18;;;;;;;25.15;13.55;;;21.60;99.90;;;;;;6203125;23;20293;-82
2023/10/11 00:23:46;;;;;;;22.27;13.55;;;21.50;99.90;;;;;;6202557;23;20040;-82
2023/10/11 00:26:14;;;;;;;24.10;14.25;;;21.60;99.90;;;;;;6227393;23;20016;-82
2023/10/11 00:28:40;;;;;;;24.83;13.45;;;21.60;99.90;;;;;;6202771;23;20023;-81
2023/10/11 00:31:18;;;;;;;30.67;13.98;;;21.60;99.90;;;;;;6178215;23;20016;-80
2023/10/11 00:33:46;;;;;;;24.55;13.68;;;21.70;99.90;;;;;;6228328;23;20012;-84
2023/10/11 00:36:13;;;;;;;32.25;14.95;;;21.60;99.90;;;;;;6227677;23;20022;-83
2023/10/11 00:38:49;;;;;;;24.45;15.32;;;21.60;99.90;;;;;;6178405;23;20096;-81
2023/10/11 00:41:18;;;;;;;25.50;13.75;;;21.70;99.90;;;;;;6204727;23;20179;-84
2023/10/11 00:43:47;;;;;;;27.33;13.52;;;21.60;99.90;;;;;;6227782;23;20324;-85
2023/10/11 00:46:14;;;;;;;33.38;16.52;;;21.70;99.90;;;;;;6177744;23;20016;-82
2023/10/11 00:49:09;;;;;;;34.50;16.50;;;21.80;99.90;;;;;;6178163;23;20095;-81
2023/10/11 00:51:36;;;;;;;;;;;21.80;99.90;;;;;;6208924;23;20327;-83
2023/10/11 00:54:12;;;;;;;28.52;14.68;;;21.80;99.90;;;;;;6204039;23;19915;-83
2023/10/11 00:56:43;;;;;;;32.80;15.18;;;21.70;99.90;;;;;;6202697;23;20020;-82
2023/10/11 00:59:14;;;;;;;31.30;15.98;;;21.80;99.90;;;;;;6202324;23;20027;-83
2023/10/11 01:01:42;;;;;;;29.17;14.50;;;21.80;99.90;;;;;;6227858;23;20071;-83
2023/10/11 01:04:09;;;;;;;28.25;15.18;;;21.70;99.90;;;;;;6202642;23;20047;-82
2023/10/11 01:06:35;;;;;;;35.30;15.90;;;21.70;99.90;;;;;;6227196;23;20008;-81
2023/10/11 01:09:09;;;;;;;27.35;15.77;;;21.80;99.90;;;;;;6177770;23;20008;-82
2023/10/11 01:11:35;;;;;;;32.60;15.50;;;21.80;99.90;;;;;;6204143;23;20067;-82
2023/10/11 01:14:00;;;;;;;31.00;15.68;;;21.70;99.90;;;;;;6198727;23;20035;-81
2023/10/11 01:16:28;;;;;;;25.45;14.50;;;21.70;99.90;;;;;;6172331;23;20048;-80
2023/10/11 01:19:16;;;;;;;32.63;15.63;;;21.80;99.90;;;;;;6177539;23;20019;-82
2023/10/11 01:21:54;;;;;;;31.20;15.98;;;21.70;99.90;;;;;;6226324;23;20019;-84
2023/10/11 01:24:21;;;;;;;32.00;14.77;;;21.70;99.90;;;;;;6178090;23;20027;-80
2023/10/11 01:26:47;;;;;;;32.75;16.35;;;21.70;99.90;;;;;;6202317;23;20016;-82
2023/10/11 01:29:14;;;;;;;26.75;15.45;;;21.80;99.90;;;;;;6177581;23;20081;-83
2023/10/11 01:31:40;;;;;;;32.67;15.95;;;21.70;99.90;;;;;;6202068;23;20051;-82
2023/10/11 01:34:05;;;;;;;30.63;15.93;;;21.70;99.90;;;;;;6202165;23;20271;-84
2023/10/11 01:36:31;;;;;;;31.15;15.63;;;21.80;99.90;;;;;;6202381;23;20011;-83
2023/10/11 01:39:07;;;;;;;30.13;14.77;;;21.70;99.90;;;;;;6201859;23;20020;-82
2023/10/11 01:41:36;;;;;;;31.27;16.35;;;21.70;99.90;;;;;;6179466;23;20020;-82
2023/10/11 01:44:02;;;;;;;30.70;15.50;;;21.70;99.90;;;;;;6223481;23;20015;-82
2023/10/11 01:46:27;;;;;;;35.75;15.80;;;21.70;99.90;;;;;;6225908;23;20194;-82
2023/10/11 01:49:01;;;;;;;32.33;14.15;;;21.80;99.90;;;;;;6201719;23;20313;-84
2023/10/11 01:51:27;;;;;;;30.83;16.70;;;21.80;99.90;;;;;;6202275;23;20062;-83
2023/10/11 01:54:06;;;;;;;31.27;14.55;;;21.80;99.90;;;;;;6202166;23;20020;-82
2023/10/11 01:56:34;;;;;;;31.98;15.45;;;21.80;99.90;;;;;;6202058;23;20310;-83
2023/10/11 01:59:01;;;;;;;35.05;15.80;;;21.80;99.90;;;;;;6176849;23;20020;-82
2023/10/11 02:01:38;;;;;;;34.47;14.80;;;21.70;99.90;;;;;;6166624;23;20028;-83
2023/10/11 02:04:17;;;;;;;24.30;13.10;;;21.70;99.90;;;;;;6167385;23;20319;-81
2023/10/11 02:07:07;;;;;;;30.60;15.07;;;21.70;99.90;;;;;;6167481;23;20207;-82
2023/10/11 02:09:43;;;;;;;26.23;13.48;;;21.80;99.90;;;;;;6166853;23;20048;-85
2023/10/11 02:12:10;;;;;;;28.63;14.98;;;21.80;99.90;;;;;;6167151;23;20039;-84
2023/10/11 02:14:40;;;;;;;30.73;15.05;;;21.70;99.90;;;;;;6164463;23;20021;-83
2023/10/11 02:17:06;;;;;;;33.15;14.10;;;21.70;99.90;;;;;;6142477;23;20261;-82
2023/10/11 02:19:32;;;;;;;32.47;13.93;;;21.80;99.90;;;;;;6142776;23;20013;-82
2023/10/11 02:22:00;;;;;;;25.13;13.02;;;21.80;99.90;;;;;;6142734;23;20283;-82
2023/10/11 02:24:26;;;;;;;31.92;14.85;;;21.80;99.90;;;;;;6142313;23;20020;-84
2023/10/11 02:26:54;;;;;;;39.63;16.20;;;21.80;99.90;;;;;;6191880;23;20031;-82
2023/10/11 02:29:21;;;;;;;26.25;14.18;;;21.70;99.90;;;;;;6142747;23;20016;-82
2023/10/11 02:31:54;;;;;;;31.25;15.05;;;21.80;99.90;;;;;;6167294;23;20299;-84
2023/10/11 02:34:21;;;;;;;29.35;14.73;;;21.70;99.90;;;;;;6143671;23;20084;-83
2023/10/11 02:37:05;;;;;;;34.85;15.15;;;21.70;99.90;;;;;;6167469;23;20068;-83
2023/10/11 02:39:31;;;;;;;33.42;15.23;;;21.70;99.90;;;;;;6170276;23;20013;-82
2023/10/11 02:41:58;;;;;;;23.08;12.85;;;21.60;99.90;;;;;;6166919;23;20443;-82
2023/10/11 02:44:25;;;;;;;35.40;14.90;;;21.70;99.90;;;;;;6163530;23;20035;-83
2023/10/11 02:46:52;;;;;;;34.95;14.43;;;21.70;99.90;;;;;;6190872;23;20016;-82
2023/10/11 02:49:19;;;;;;;27.00;13.82;;;21.70;99.90;;;;;;6167000;23;20543;-83
2023/10/11 02:51:52;;;;;;;30.80;14.95;;;21.70;99.90;;;;;;6166814;23;20057;-82
2023/10/11 02:54:38;;;;;;;27.33;14.73;;;21.70;99.90;;;;;;6167282;23;20347;-82
2023/10/11 02:57:20;;;;;;;35.08;14.45;;;21.70;99.90;;;;;;6145165;23;20013;-81
2023/10/11 02:59:50;;;;;;;26.23;14.77;;;21.60;99.90;;;;;;6199964;23;20075;-82
2023/10/11 03:03:08;;;;;;;32.88;15.00;;;21.70;99.90;;;;;;6196600;23;20050;-85
2023/10/11 03:05:38;;;;;;;34.95;16.25;;;21.70;99.90;;;;;;6222529;23;20068;-82
2023/10/11 03:08:44;;;;;;;38.00;15.77;;;21.60;99.90;;;;;;6173759;23;20628;-84
2023/10/11 03:11:15;;;;;;;35.20;15.27;;;21.70;99.90;;;;;;6082487;23;20037;-84
2023/10/11 03:13:43;;;;;;;30.05;14.75;;;21.70;99.90;;;;;;6202656;23;20076;-82
2023/10/11 03:16:12;;;;;;;30.52;14.30;;;21.70;99.90;;;;;;6196156;23;20034;-85
2023/10/11 03:18:39;;;;;;;34.97;14.15;;;21.70;99.90;;;;;;6196815;23;20012;-84
2023/10/11 03:21:17;;;;;;;29.85;14.40;;;21.50;99.90;;;;;;6196194;23;20241;-83
2023/10/11 03:23:47;;;;;;;29.33;14.45;;;21.70;99.90;;;;;;6195794;23;20191;-82
2023/10/11 03:26:31;;;;;;;37.03;15.60;;;21.70;99.90;;;;;;6221496;23;20008;-82
2023/10/11 03:29:05;;;;;;;30.25;14.75;;;21.70;99.90;;;;;;6195919;23;20021;-82
2023/10/11 03:31:40;;;;;;;37.70;15.15;;;21.60;99.90;;;;;;6195314;23;20525;-82
2023/10/11 03:34:10;;;;;;;;;;;21.70;99.90;;;;;;6221832;23;20066;-82
2023/10/11 03:36:43;;;;;;;26.25;13.32;;;21.70;99.90;;;;;;6220658;23;19955;-82
2023/10/11 03:39:09;;;;;;;32.45;13.50;;;21.60;99.90;;;;;;6197742;23;20245;-81
2023/10/11 03:41:48;;;;;;;31.58;13.10;;;21.60;99.90;;;;;;6171439;23;20021;-83
2023/10/11 03:44:17;;;;;;;32.22;14.23;;;21.70;99.90;;;;;;6173490;23;20067;-82
2023/10/11 03:46:56;;;;;;;33.40;14.13;;;21.60;99.90;;;;;;6196845;23;20008;-84
2023/10/11 03:51:48;;;;;;;26.50;13.68;;;21.60;99.90;;;;;;6196099;23;20012;-82
2023/10/11 03:54:24;;;;;;;27.95;14.07;;;21.70;99.90;;;;;;6197102;23;20013;-85
2023/10/11 03:56:54;;;;;;;27.30;14.38;;;21.60;99.90;;;;;;6173297;23;20012;-84
2023/10/11 03:59:20;;;;;;;32.10;14.35;;;21.70;99.90;;;;;;6225412;23;20024;-84
2023/10/11 04:01:47;;;;;;;28.30;13.65;;;21.70;99.90;;;;;;6226615;23;20020;-84
2023/10/11 04:04:13;;;;;;;30.02;13.23;;;21.80;99.90;;;;;;6202209;23;20012;-83
2023/10/11 04:06:38;;;;;;;39.03;13.63;;;21.60;99.90;;;;;;6201450;23;20026;-83
2023/10/11 04:09:22;;;;;;;32.05;11.80;;;21.60;99.90;;;;;;6176756;23;20009;-83
2023/10/11 04:11:55;;;;;;;27.77;13.20;;;21.50;99.90;;;;;;6226643;23;20016;-84
2023/10/11 04:14:32;;;;;;;33.03;14.43;;;21.50;99.90;;;;;;6178276;23;20012;-84
2023/10/11 04:17:00;;;;;;;25.15;13.25;;;21.50;99.90;;;;;;6178537;23;20020;-83
2023/10/11 04:19:26;;;;;;;25.35;12.77;;;21.50;99.90;;;;;;6201400;23;20012;-84
2023/10/11 04:24:19;;;;;;;32.40;12.93;;;21.60;99.90;;;;;;6201746;23;20016;-84
2023/10/11 04:27:45;;;;;;;30.27;12.55;;;21.60;99.90;;;;;;6226027;23;20236;-84
2023/10/11 04:29:41;;;;;;;26.40;12.85;;;21.60;99.90;;;;;;6205653;23;20057;-84
2023/10/11 04:32:13;;;;;;;28.70;12.65;;;21.50;99.90;;;;;;6176729;23;20035;-84
2023/10/11 04:34:47;;;;;;;24.95;12.60;;;21.50;99.90;;;;;;6226099;23;20356;-84
2023/10/11 04:37:27;;;;;;;24.90;12.38;;;21.40;99.90;;;;;;6226761;23;20019;-82
2023/10/11 04:40:14;;;;;;;30.00;12.85;;;21.40;99.90;;;;;;6225459;23;20315;-85
2023/10/11 04:42:40;;;;;;;26.42;12.20;;;21.50;99.90;;;;;;6179393;23;20202;-82
2023/10/11 04:45:06;;;;;;;24.52;12.27;;;21.50;99.90;;;;;;6201106;23;20019;-82
2023/10/11 04:47:51;;;;;;;26.27;13.27;;;21.50;99.90;;;;;;6177142;23;20355;-83
2023/10/11 04:50:16;;;;;;;32.03;12.82;;;21.40;99.90;;;;;;6226402;23;20007;-82
2023/10/11 04:52:48;;;;;;;30.08;12.85;;;21.50;99.90;;;;;;6202899;23;20008;-83
2023/10/11 04:55:15;;;;;;;25.75;12.95;;;21.50;99.90;;;;;;6179695;23;20016;-83
2023/10/11 04:57:49;;;;;;;25.10;13.07;;;21.40;99.90;;;;;;6178846;23;20020;-82
2023/10/11 05:00:18;;;;;;;25.80;12.70;;;21.40;99.90;;;;;;6174952;23;20024;-83
2023/10/11 05:02:50;;;;;;;32.60;14.10;;;21.50;99.90;;;;;;6174107;23;20079;-83
2023/10/11 05:05:19;;;;;;;33.22;12.75;;;21.40;99.90;;;;;;6223306;23;20198;-82
2023/10/11 05:07:55;;;;;;;24.02;12.90;;;21.40;99.90;;;;;;6223173;23;20080;-83
2023/10/11 05:12:47;;;;;;;32.03;13.90;;;21.30;99.90;;;;;;6223032;23;20017;-83
2023/10/11 05:15:15;;;;;;;28.42;12.77;;;21.30;99.90;;;;;;6223044;23;20021;-84
2023/10/11 05:17:48;;;;;;;29.15;13.52;;;21.30;99.90;;;;;;6198569;23;20063;-84
2023/10/11 05:27:49;;;;;;;25.17;12.52;;;21.40;99.90;;;;;;6223087;23;20019;-82
2023/10/11 05:35:43;;;;;;;34.97;14.20;;;21.50;99.90;;;;;;6223244;23;20017;-83
2023/10/11 05:51:48;;;;;;;31.67;14.40;;;21.40;99.90;;;;;;6201542;23;20329;-71
2023/10/11 05:54:21;;;;;;;24.15;12.43;;;21.40;99.90;;;;;;6223667;23;20289;-87
2023/10/11 05:56:49;;;;;;;25.55;12.65;;;21.40;99.90;;;;;;6222793;23;20036;-85
2023/10/11 05:59:17;;;;;;;36.30;14.13;;;21.40;99.90;;;;;;6200906;23;20013;-85
2023/10/11 06:01:46;;;;;;;38.03;14.23;;;21.50;99.90;;;;;;6202658;23;20019;-86
2023/10/11 06:04:14;;;;;;;23.50;13.23;;;21.50;99.90;;;;;;6202778;23;20075;-84
2023/10/11 06:06:45;;;;;;;27.10;13.10;;;21.60;99.90;;;;;;6228412;23;20252;-85
2023/10/11 06:09:17;;;;;;;29.13;12.95;;;21.60;99.90;;;;;;6179714;23;20015;-86
2023/10/11 06:11:50;;;;;;;31.42;13.98;;;21.40;99.90;;;;;;6227516;23;20012;-85
2023/10/11 06:14:21;;;;;;;28.20;13.25;;;21.60;99.90;;;;;;6228389;23;20019;-84
2023/10/11 06:16:57;;;;;;;35.72;14.02;;;21.60;99.90;;;;;;6177188;23;20212;-84
2023/10/11 06:19:27;;;;;;;38.17;13.57;;;21.70;99.90;;;;;;6179713;23;20011;-81
2023/10/11 06:24:33;;;;;;;30.17;13.32;;;21.70;99.90;;;;;;6203353;23;20070;-83
2023/10/11 06:29:53;;;;;;;;;;;21.80;99.90;;;;;;6227805;23;19908;-83
2023/10/11 06:32:23;;;;;;;25.02;12.23;;;21.90;99.90;;;;;;6204006;23;19915;-81
2023/10/11 06:34:52;;;;;;;27.65;12.13;;;21.90;99.90;;;;;;6227153;23;20012;-84
2023/10/11 06:37:23;;;;;;;33.72;14.15;;;22.00;99.90;;;;;;6202331;23;20020;-82
2023/10/11 06:44:57;;;;;;;25.65;11.68;;;21.90;99.90;;;;;;6226628;23;20282;-82
2023/10/11 06:47:24;;;;;;;26.95;13.90;;;22.00;99.90;;;;;;6202090;23;20263;-80
2023/10/11 06:49:55;;;;;;;34.72;14.07;;;21.90;99.90;;;;;;6225858;23;20016;-66
2023/10/11 06:52:31;;;;;;;31.77;13.35;;;21.90;99.90;;;;;;6225504;23;20223;-65
2023/10/11 06:57:52;;;;;;;25.67;11.90;;;21.90;99.90;;;;;;6205502;23;20024;-82
2023/10/11 07:02:52;;;;;;;29.33;12.68;;;22.10;99.90;;;;;;6226647;23;20062;-83
2023/10/11 07:05:20;;;;;;;29.20;12.75;;;22.10;99.90;;;;;;6227395;23;20012;-81
2023/10/11 07:07:49;;;;;;;25.95;13.30;;;22.00;99.90;;;;;;6201789;23;20008;-81
2023/10/11 07:10:28;;;;;;;28.05;12.75;;;22.10;99.90;;;;;;6201351;23;20042;-81
2023/10/11 07:13:05;;;;;;;26.38;12.02;;;22.10;99.90;;;;;;6200856;23;20079;-83
2023/10/11 07:15:48;;;;;;;22.70;11.35;;;22.10;99.90;;;;;;6201122;23;20368;-84
2023/10/11 07:18:33;;;;;;;26.50;11.75;;;22.10;99.90;;;;;;6201045;23;20016;-82
2023/10/11 07:21:05;;;;;;;26.95;11.65;;;22.30;99.90;;;;;;6178609;23;20039;-83
2023/10/11 07:26:47;;;;;;;21.20;10.40;;;22.40;99.90;;;;;;6205044;23;20027;-82
2023/10/11 07:29:12;;;;;;;22.33;11.10;;;22.30;99.90;;;;;;6206425;23;20076;-83
2023/10/11 07:31:48;;;;;;;25.25;10.85;;;22.30;99.90;;;;;;6226554;23;20008;-84
2023/10/11 07:34:20;;;;;;;26.25;12.00;;;22.30;99.90;;;;;;6202226;23;20023;-80
2023/10/11 07:36:50;;;;;;;23.23;10.85;;;22.30;99.90;;;;;;6201036;23;20018;-82
2023/10/11 07:39:25;;;;;;;22.58;11.30;;;22.40;99.90;;;;;;6176670;23;20050;-80
2023/10/11 07:42:01;;;;;;;27.27;11.75;;;22.50;99.90;;;;;;6198306;23;20274;-81
2023/10/11 07:44:29;;;;;;;29.40;11.50;;;22.50;99.90;;;;;;6178598;23;20038;-81
2023/10/11 07:46:55;;;;;;;18.70;10.85;;;22.60;99.90;;;;;;6199986;23;20071;-79
2023/10/11 07:49:24;;;;;;;27.50;11.38;;;22.60;99.90;;;;;;6174993;23;20008;-80
2023/10/11 07:51:53;;;;;;;32.53;13.18;;;22.50;99.90;;;;;;6200342;23;20035;-79
2023/10/11 07:54:20;;;;;;;23.65;11.52;;;22.50;99.90;;;;;;6225531;23;20302;-83
2023/10/11 07:56:56;;;;;;;24.55;11.88;;;22.60;99.90;;;;;;6176632;23;20012;-82
2023/10/11 07:59:28;;;;;;;26.20;11.70;;;22.70;99.90;;;;;;6252204;23;20039;-81
2023/10/11 08:01:59;;;;;;;22.95;12.45;;;22.70;99.90;;;;;;6176227;23;20074;-82
2023/10/11 08:04:29;;;;;;;22.17;11.77;;;22.60;99.90;;;;;;6225843;23;20229;-81
2023/10/11 08:07:06;;;;;;;26.17;11.75;;;22.70;99.90;;;;;;6200473;23;20270;-82
2023/10/11 08:09:45;;;;;;;31.35;12.70;;;22.70;99.90;;;;;;6200939;23;20202;-83
2023/10/11 08:12:13;;;;;;;24.73;11.98;;;22.70;99.90;;;;;;6200184;23;20043;-82
2023/10/11 08:14:44;;;;;;;26.05;12.75;;;22.70;99.90;;;;;;6225810;23;20011;-82
2023/10/11 08:17:12;;;;;;;22.38;11.48;;;22.60;99.90;;;;;;6200341;23;20012;-83
2023/10/11 08:19:37;;;;;;;26.83;11.75;;;22.70;99.90;;;;;;6201097;23;20012;-81
2023/10/11 08:22:09;;;;;;;24.08;11.15;;;22.60;99.90;;;;;;6251414;23;20047;-82
2023/10/11 08:24:48;;;;;;;23.60;11.13;;;22.60;99.90;;;;;;6177008;23;20339;-81
2023/10/11 08:27:28;;;;;;;21.65;10.88;;;22.70;99.90;;;;;;6201736;23;20040;-82
2023/10/11 08:30:16;;;;;;;22.13;10.50;;;22.60;99.90;;;;;;6227664;23;20016;-84
2023/10/11 08:32:47;;;;;;;21.40;11.40;;;22.70;99.90;;;;;;6202775;23;20004;-81
2023/10/11 08:35:26;;;;;;;21.23;10.57;;;22.60;99.90;;;;;;6202502;23;20420;-81
2023/10/11 08:37:53;;;;;;;19.15;10.93;;;22.80;99.90;;;;;;6180422;23;20027;-81
2023/10/11 08:40:23;;;;;;;25.30;10.65;;;22.60;99.90;;;;;;6178273;23;20071;-81
2023/10/11 08:42:50;;;;;;;22.17;10.77;;;22.70;99.90;;;;;;6202640;23;20019;-81
2023/10/11 08:45:38;;;;;;;24.73;10.93;;;22.60;99.90;;;;;;6202206;23;20043;-81
2023/10/11 08:48:05;;;;;;;23.42;10.90;;;22.70;99.90;;;;;;6202052;23;20027;-81
2023/10/11 08:50:36;;;;;;;21.15;9.95;;;22.70;99.90;;;;;;6202854;23;20059;-82
2023/10/11 08:53:07;;;;;;;23.20;10.20;;;22.80;99.90;;;;;;6202724;23;20070;-81
2023/10/11 08:55:35;;;;;;;26.73;10.70;;;22.90;99.90;;;;;;6226517;23;20011;-82
2023/10/11 08:58:23;;;;;;;23.02;10.70;;;22.80;99.90;;;;;;6201685;23;20069;-81
2023/10/11 09:00:52;;;;;;;22.95;10.60;;;22.70;99.90;;;;;;6227182;23;20186;-81
2023/10/11 09:03:19;;;;;;;22.10;9.93;;;22.80;99.90;;;;;;6176952;23;20183;-82
2023/10/11 09:05:45;;;;;;;24.65;9.85;;;22.70;99.90;;;;;;6176293;23;20008;-80
2023/10/11 09:08:26;;;;;;;18.30;9.02;;;22.70;99.90;;;;;;6225817;23;20008;-81
2023/10/11 09:11:11;;;;;;;18.13;9.45;;;22.80;99.90;;;;;;6178400;23;20008;-81
2023/10/11 09:13:37;;;;;;;19.92;9.65;;;22.70;99.90;;;;;;6227205;23;20365;-83
2023/10/11 09:16:11;;;;;;;18.10;8.95;;;22.70;99.90;;;;;;6226423;23;20301;-81
2023/10/11 09:18:38;;;;;;;12.73;8.50;;;22.80;99.90;;;;;;6202082;23;20016;-82
2023/10/11 09:21:18;;;;;;;13.98;7.78;;;22.80;99.90;;;;;;6201826;23;20063;-82
2023/10/11 09:23:47;;;;;;;13.75;7.30;;;22.80;99.90;;;;;;6227302;23;20393;-82
2023/10/11 09:26:21;;;;;;;11.20;6.72;;;22.80;99.90;;;;;;6177599;23;20077;-81
2023/10/11 09:29:02;;;;;;;11.80;6.97;;;22.80;99.90;;;;;;6178926;23;20559;-82
2023/10/11 09:31:31;;;;;;;13.63;7.53;;;22.90;99.90;;;;;;6201810;23;20016;-82
2023/10/11 09:34:07;;;;;;;13.35;7.03;;;23.00;99.90;;;;;;6227297;23;20018;-81
2023/10/11 09:36:33;;;;;;;11.55;7.20;;;23.10;99.90;;;;;;6201759;23;20085;-82
2023/10/11 09:39:02;;;;;;;13.30;6.65;;;23.10;99.90;;;;;;6201520;23;20042;-81
2023/10/11 09:41:42;;;;;;;11.25;6.60;;;23.20;99.90;;;;;;6202853;23;20019;-82
2023/10/11 09:44:11;;;;;;;11.48;6.50;;;23.30;99.90;;;;;;6226698;23;20012;-80
2023/10/11 09:46:37;;;;;;;11.98;6.18;;;23.30;99.90;;;;;;6227101;23;20015;-81
2023/10/11 09:49:04;;;;;;;13.10;6.57;;;23.40;99.90;;;;;;6176570;23;20016;-80
2023/10/11 09:51:31;;;;;;;14.23;6.43;;;23.40;99.90;;;;;;6202124;23;20023;-82
2023/10/11 09:54:02;;;;;;;17.70;7.45;;;23.50;99.90;;;;;;6226681;23;20054;-81
2023/10/11 09:56:50;;;;;;;13.18;7.05;;;23.60;99.90;;;;;;6226978;23;20074;-82
2023/10/11 09:59:34;;;;;;;16.17;6.78;;;23.40;99.90;;;;;;6201149;23;20020;-82
2023/10/11 10:02:13;;;;;;;13.48;6.95;;;23.50;99.90;;;;;;6225909;23;20015;-83
2023/10/11 10:04:51;;;;;;;12.23;5.63;;;23.40;99.90;;;;;;6201084;23;20024;-81
2023/10/11 10:08:07;;;;;;;8.40;5.63;;;23.40;99.90;;;;;;6225945;23;20007;-82
2023/10/11 10:10:25;;;;;;;10.50;6.13;;;23.40;99.90;;;;;;6200486;23;20012;-82
2023/10/11 10:13:09;;;;;;;9.30;6.03;;;23.50;99.90;;;;;;6203182;23;20066;-81
2023/10/11 10:15:47;;;;;;;10.75;6.30;;;23.60;99.90;;;;;;6201987;23;20058;-82
2023/10/11 10:18:19;;;;;;;9.90;5.90;;;23.70;99.90;;;;;;6200846;23;20058;-81
2023/10/11 10:20:46;;;;;;;12.18;6.15;;;23.90;99.90;;;;;;6177314;23;20327;-83
2023/10/11 10:23:37;;;;;;;11.77;6.22;;;23.80;99.90;;;;;;6225910;23;20067;-81
2023/10/11 10:26:24;;;;;;;12.05;6.07;;;24.00;99.90;;;;;;6226413;23;20043;-83
2023/10/11 10:28:57;;;;;;;9.63;5.82;;;24.00;99.90;;;;;;6226057;23;20008;-80
2023/10/11 10:31:24;;;;;;;10.18;6.10;;;24.00;99.90;;;;;;6178047;23;20079;-80
2023/10/11 10:34:13;;;;;;;11.48;5.97;;;24.00;99.90;;;;;;6202042;23;20011;-82
2023/10/11 10:36:44;;;;;;;14.40;6.05;;;24.10;99.90;;;;;;6202672;23;20118;-81
2023/10/11 10:41:38;;;;;;;13.02;5.97;;;24.10;99.90;;;;;;6199148;23;20024;-83
2023/10/11 10:44:13;;;;;;;8.43;5.40;;;24.10;99.90;;;;;;6198977;23;20012;-81
2023/10/11 10:46:49;;;;;;;13.20;5.30;;;24.10;99.90;;;;;;6225025;23;20096;-83
2023/10/11 10:49:27;;;;;;;9.30;5.32;;;24.20;99.90;;;;;;6199295;23;20024;-83
2023/10/11 10:51:56;;;;;;;10.25;5.07;;;24.20;99.90;;;;;;6199203;23;20008;-83
2023/10/11 10:54:23;;;;;;;11.48;5.25;;;24.30;99.90;;;;;;6225224;23;20075;-83
2023/10/11 10:56:58;;;;;;;8.23;4.40;;;24.60;99.90;;;;;;6174623;23;20020;-82
2023/10/11 10:59:26;;;;;;;11.23;4.70;;;24.70;99.90;;;;;;6199139;23;20047;-83
2023/10/11 11:01:55;;;;;;;9.23;5.05;;;24.80;99.90;;;;;;6199633;23;20031;-81
2023/10/11 11:04:28;;;;;;;9.50;4.40;;;25.00;99.90;;;;;;6225746;23;20094;-82
2023/10/11 11:06:55;;;;;;;8.32;4.45;;;25.00;99.90;;;;;;6226242;23;20016;-83
2023/10/11 11:09:28;;;;;;;9.40;4.43;;;25.10;99.90;;;;;;6176212;23;20163;-82
2023/10/11 11:12:14;;;;;;;7.63;3.95;;;25.20;99.90;;;;;;6203954;23;20014;-83
2023/10/11 11:14:54;;;;;;;8.63;4.43;;;25.20;99.90;;;;;;6200773;23;20079;-83
2023/10/11 11:17:20;;;;;;;7.57;3.97;;;25.20;99.90;;;;;;6200522;23;20202;-83
2023/10/11 11:22:46;;;;;;;7.05;4.40;;;25.00;99.90;;;;;;6225610;23;20022;-82
2023/10/11 11:25:26;;;;;;;6.18;3.70;;;25.10;99.90;;;;;;6200480;23;20012;-83
2023/10/11 11:28:03;;;;;;;7.82;3.90;;;24.90;99.90;;;;;;6200032;23;20008;-84
2023/10/11 11:30:33;;;;;;;5.53;3.30;;;25.00;99.90;;;;;;6201023;23;20115;-83
2023/10/11 11:33:08;;;;;;;11.05;3.83;;;24.90;99.90;;;;;;6177249;23;20207;-83
2023/10/11 11:35:47;;;;;;;7.15;3.85;;;24.80;99.90;;;;;;6226603;23;20042;-85
2023/10/11 11:38:21;;;;;;;6.38;3.42;;;24.80;99.90;;;;;;6200851;23;20210;-85
2023/10/11 11:40:47;;;;;;;5.35;3.30;;;24.80;99.90;;;;;;6177590;23;20015;-85
2023/10/11 11:43:17;;;;;;;6.05;3.58;;;24.80;99.90;;;;;;6200915;23;20047;-83
2023/10/11 11:45:45;;;;;;;4.05;3.25;;;24.80;99.90;;;;;;6200388;23;20233;-83
2023/10/11 11:48:11;;;;;;;8.57;3.60;;;24.80;99.90;;;;;;6200771;23;20012;-83
2023/10/11 11:50:38;;;;;;;6.40;3.25;;;24.80;99.90;;;;;;6176026;23;20054;-83
2023/10/11 11:53:05;;;;;;;7.60;4.10;;;24.90;99.90;;;;;;6175571;23;20027;-82
2023/10/11 11:55:34;;;;;;;8.45;3.42;;;24.80;99.90;;;;;;6199624;23;20012;-82
2023/10/11 11:58:00;;;;;;;11.70;3.40;;;24.80;99.90;;;;;;6176730;23;20020;-84
2023/10/11 12:02:52;;;;;;;7.18;3.10;;;24.90;99.90;;;;;;6202171;23;20074;-82
2023/10/11 12:05:19;;;;;;;5.93;3.15;;;25.00;99.90;;;;;;6201656;23;20022;-82
2023/10/11 12:07:44;;;;;;;5.30;2.95;;;25.00;99.90;;;;;;6201055;23;20012;-83
2023/10/11 12:10:23;;;;;;;9.60;3.67;;;25.20;99.90;;;;;;6201755;23;20073;-81
2023/10/11 12:12:50;;;;;;;5.70;3.10;;;25.30;99.90;;;;;;6180490;23;20093;-83
2023/10/11 12:15:28;;;;;;;5.78;2.75;;;25.40;99.90;;;;;;6177469;23;20062;-84
2023/10/11 12:18:05;;;;;;;4.82;2.90;;;25.50;99.90;;;;;;6229352;23;20022;-82
2023/10/11 12:20:36;;;;;;;4.28;3.10;;;25.50;99.90;;;;;;6225646;23;20019;-81
2023/10/11 12:23:09;;;;;;;5.78;3.25;;;25.30;99.90;;;;;;6178780;23;20012;-81
2023/10/11 12:25:38;;;;;;;7.30;3.28;;;25.30;99.90;;;;;;6178169;23;20008;-83
2023/10/11 12:28:06;;;;;;;5.63;2.75;;;25.40;99.90;;;;;;6178864;23;20290;-82
2023/10/11 12:30:36;;;;;;;5.18;3.03;;;25.30;99.90;;;;;;6201472;23;20078;-83
2023/10/11 12:33:08;;;;;;;6.22;3.10;;;25.30;99.90;;;;;;6178570;23;20066;-81
2023/10/11 12:35:42;;;;;;;6.93;2.88;;;25.20;99.90;;;;;;6201770;23;20040;-82
2023/10/11 12:38:12;;;;;;;9.95;3.60;;;25.20;99.90;;;;;;6178151;23;20015;-82
2023/10/11 12:40:44;;;;;;;8.52;3.50;;;25.20;99.90;;;;;;6203454;23;20012;-80
2023/10/11 12:43:10;;;;;;;8.60;2.90;;;25.10;99.90;;;;;;6201342;23;20122;-79
2023/10/11 12:45:41;;;;;;;7.32;3.63;;;24.90;99.90;;;;;;6201625;23;20012;-81
2023/10/11 12:48:10;;;;;;;10.40;3.42;;;24.80;99.90;;;;;;6199744;23;20014;-82
2023/10/11 12:50:36;;;;;;;8.43;3.42;;;24.80;99.90;;;;;;6198847;23;20008;-81
2023/10/11 12:53:10;;;;;;;6.80;3.83;;;24.70;99.90;;;;;;6201424;23;20042;-82
2023/10/11 12:55:45;;;;;;;6.28;3.00;;;24.80;99.90;;;;;;6177918;23;20015;-81
2023/10/11 12:58:15;;;;;;;12.40;3.60;;;24.80;99.90;;;;;;6202326;23;20077;-83
2023/10/11 13:00:51;;;;;;;7.90;3.40;;;24.80;99.90;;;;;;6201123;23;20305;-82
2023/10/11 13:05:47;;;;;;;4.90;2.70;;;25.00;99.90;;;;;;6223620;23;20020;-80
2023/10/11 13:08:16;;;;;;;7.53;2.85;;;25.10;99.90;;;;;;6223424;23;20016;-80
2023/10/11 13:10:46;;;;;;;7.45;3.22;;;25.20;99.90;;;;;;6223674;23;20206;-79
2023/10/11 13:13:15;;;;;;;7.07;2.83;;;25.10;99.90;;;;;;6197192;23;20069;-78
2023/10/11 13:15:53;;;;;;;7.00;2.90;;;25.00;99.90;;;;;;6197295;23;20043;-79
2023/10/11 13:18:26;;;;;;;11.15;3.20;;;25.10;99.90;;;;;;6200287;23;20233;-79
2023/10/11 13:20:53;;;;;;;6.55;2.92;;;25.10;99.90;;;;;;6197765;23;20062;-78
2023/10/11 13:23:28;;;;;;;5.93;3.20;;;25.10;99.90;;;;;;6197875;23;20008;-79
2023/10/11 13:25:55;;;;;;;11.07;3.05;;;25.20;99.90;;;;;;6174573;23;20312;-79
2023/10/11 13:28:21;;;;;;;5.90;2.95;;;25.30;99.90;;;;;;6221860;23;20376;-79
2023/10/11 13:30:47;;;;;;;7.95;3.17;;;25.30;99.90;;;;;;6197565;23;20018;-79
2023/10/11 13:33:17;;;;;;;5.25;2.83;;;25.40;99.90;;;;;;6197623;23;20016;-79
2023/10/11 13:35:43;;;;;;;7.90;3.35;;;25.30;99.90;;;;;;6223526;23;20019;-79
2023/10/11 13:38:11;;;;;;;6.13;3.00;;;25.10;99.90;;;;;;6173542;23;20020;-80
2023/10/11 13:40:41;;;;;;;5.50;2.80;;;25.00;99.90;;;;;;6198171;23;20054;-80
2023/10/11 13:43:08;;;;;;;5.70;3.00;;;24.90;99.90;;;;;;6224129;23;20292;-79
2023/10/11 13:45:40;;;;;;;6.93;3.20;;;24.80;99.90;;;;;;6198023;23;20015;-79
2023/10/11 13:48:11;;;;;;;7.78;3.45;;;24.70;99.90;;;;;;6199414;23;20201;-79
2023/10/11 13:50:41;;;;;;;7.60;3.25;;;24.50;99.90;;;;;;6198290;23;20012;-78
2023/10/11 13:53:13;;;;;;;6.80;3.00;;;24.40;99.90;;;;;;6199292;23;20022;-78
2023/10/11 13:55:42;;;;;;;8.55;3.65;;;24.30;99.90;;;;;;6173301;23;20309;-77
2023/10/11 13:58:09;;;;;;;9.50;4.22;;;24.30;99.90;;;;;;6173458;23;20015;-77
2023/10/11 14:01:02;;;;;;;4.78;3.58;;;24.20;99.90;;;;;;6221985;23;20056;-77